Time;durP1;ratioP1;P1;durP2;ratioP2;P2;SDS_P1;SDS_P2;PMS_P1;PMS_P2;Temp;Humidity;BMP_temperature;BMP_pressure;BME280_temperature;BME280_humidity;BME280_pressure;Samples;Min_cycle;Max_cycle;Signal;HPM_P1;HPM_P2
2022/07/14 00:00:44;;;;;;;2.33;0.10;;;;;;;15.91;100.00;98869.53;1840797;77;20929;-51
2022/07/14 00:03:10;;;;;;;0.00;0.00;;;;;;;15.91;100.00;98869.53;1848479;77;20972;-51
2022/07/14 00:05:37;;;;;;;1.35;0.10;;;;;;;15.90;100.00;98870.55;1846043;75;21079;-51
2022/07/14 00:08:05;;;;;;;2.30;0.10;;;;;;;15.91;100.00;98876.31;1839783;77;21036;-51
2022/07/14 00:10:31;;;;;;;3.00;0.10;;;;;;;15.93;100.00;98872.98;1846156;77;21015;-52
2022/07/14 00:12:58;;;;;;;1.40;0.10;;;;;;;15.95;100.00;98869.66;1849111;77;21025;-51
2022/07/14 00:15:25;;;;;;;2.10;0.10;;;;;;;15.96;100.00;98871.38;1840593;77;21573;-51
2022/07/14 00:17:52;;;;;;;3.10;0.10;;;;;;;15.98;100.00;98879.41;1841914;77;21426;-51
2022/07/14 00:20:19;;;;;;;1.32;0.10;;;;;;;15.99;100.00;98885.20;1841692;77;21195;-52
2022/07/14 00:22:47;;;;;;;0.62;0.10;;;;;;;15.98;100.00;98884.83;1846749;77;21101;-52
2022/07/14 00:25:13;;;;;;;0.15;0.10;;;;;;;15.98;100.00;98886.19;1845804;77;21021;-52
2022/07/14 00:27:40;;;;;;;0.50;0.10;;;;;;;15.96;100.00;98887.67;1845616;76;21290;-51
2022/07/14 00:30:08;;;;;;;0.10;0.10;;;;;;;15.95;100.00;98887.79;1844163;77;21075;-51
2022/07/14 00:32:35;;;;;;;1.87;0.20;;;;;;;15.93;100.00;98889.77;1848487;75;21028;-50
2022/07/14 00:35:05;;;;;;;1.85;0.10;;;;;;;15.93;100.00;98891.13;1844965;77;20943;-51
2022/07/14 00:37:32;;;;;;;1.77;0.00;;;;;;;15.93;100.00;98887.91;1848009;76;20846;-51
2022/07/14 00:40:01;;;;;;;1.40;0.10;;;;;;;15.94;100.00;98892.84;1848110;77;20872;-51
2022/07/14 00:42:33;;;;;;;0.35;0.10;;;;;;;15.95;100.00;98890.02;1848284;75;20898;-52
2022/07/14 00:45:09;;;;;;;2.55;0.10;;;;;;;15.96;100.00;98890.88;1849356;77;21205;-51
2022/07/14 00:47:36;;;;;;;0.08;0.00;;;;;;;15.95;100.00;98891.86;1840124;76;20831;-50
2022/07/14 00:50:03;;;;;;;0.08;0.05;;;;;;;15.92;100.00;98898.40;1841373;75;20930;-51
2022/07/14 00:52:29;;;;;;;0.10;0.10;;;;;;;15.89;100.00;98898.67;1847679;76;20910;-51
2022/07/14 00:54:56;;;;;;;0.00;0.00;;;;;;;15.89;100.00;98891.89;1847976;76;20901;-52
2022/07/14 00:57:23;;;;;;;0.10;0.10;;;;;;;15.88;100.00;98896.45;1841704;77;21196;-52
2022/07/14 00:59:49;;;;;;;0.42;0.10;;;;;;;15.88;100.00;98895.09;1845149;77;21036;-52
2022/07/14 01:02:20;;;;;;;0.20;0.10;;;;;;;15.91;100.00;98899.91;1837688;76;21068;-52
2022/07/14 01:04:47;;;;;;;0.50;0.10;;;;;;;15.91;100.00;98898.03;1840838;77;21088;-51
2022/07/14 01:07:15;;;;;;;0.10;0.10;;;;;;;15.92;100.00;98898.40;1846222;76;21100;-51
2022/07/14 01:09:42;;;;;;;0.35;0.10;;;;;;;15.92;100.00;98895.69;1843364;75;21400;-52
2022/07/14 01:12:09;;;;;;;0.68;0.10;;;;;;;15.91;100.00;98903.45;1841957;76;21765;-52
2022/07/14 01:14:37;;;;;;;0.05;0.00;;;;;;;15.89;100.00;98902.75;1841870;76;21034;-52
2022/07/14 01:17:04;;;;;;;0.00;0.00;;;;;;;15.88;100.00;98901.02;1838180;77;21480;-52
2022/07/14 01:19:32;;;;;;;0.20;0.10;;;;;;;15.87;100.00;98909.66;1841870;77;21076;-51
2022/07/14 01:21:59;;;;;;;4.47;0.10;;;;;;;15.88;100.00;98913.23;1843585;76;21432;-51
2022/07/14 01:24:27;;;;;;;0.57;0.10;;;;;;;15.87;100.00;98907.43;1803410;78;21377;-51
2022/07/14 01:26:54;;;;;;;1.65;0.20;;;;;;;15.86;100.00;98919.27;1785222;78;20985;-51
2022/07/14 01:29:20;;;;;;;3.00;0.10;;;;;;;15.85;100.00;98918.41;1807570;78;21108;-52
2022/07/14 01:31:47;;;;;;;0.20;0.10;;;;;;;15.83;100.00;98923.09;1798623;77;21057;-51
2022/07/14 01:34:13;;;;;;;0.30;0.10;;;;;;;15.83;100.00;98921.73;1777917;78;21622;-52
2022/07/14 01:36:40;;;;;;;0.25;0.10;;;;;;;15.84;100.00;98919.89;1803224;77;21104;-51
2022/07/14 01:39:09;;;;;;;0.80;0.00;;;;;;;15.85;100.00;98918.41;1804718;78;22292;-51
2022/07/14 01:41:38;;;;;;;0.10;0.10;;;;;;;15.87;100.00;98918.28;1809854;78;21037;-51
2022/07/14 01:44:04;;;;;;;0.20;0.00;;;;;;;15.87;100.00;98925.07;1808260;77;21005;-52
2022/07/14 01:46:31;;;;;;;0.10;0.10;;;;;;;15.88;100.00;98924.95;1777217;78;21506;-50
2022/07/14 01:48:58;;;;;;;1.27;0.10;;;;;;;15.91;100.00;98924.34;1779038;79;21514;-51
2022/07/14 01:51:25;;;;;;;0.20;0.10;;;;;;;15.90;100.00;98922.11;1758086;79;21092;-51
2022/07/14 01:53:52;;;;;;;1.72;0.10;;;;;;;15.91;100.00;98933.84;1759168;79;21442;-52
2022/07/14 01:56:18;;;;;;;0.10;0.00;;;;;;;15.88;100.00;98927.66;1756874;79;21393;-51
2022/07/14 01:58:45;;;;;;;0.05;0.03;;;;;;;15.85;100.00;98932.47;1761211;79;21720;-52
2022/07/14 02:04:00;;;;;;;0.55;0.10;;;;;;;15.78;100.00;98941.62;1752677;80;20990;-50
2022/07/14 02:06:26;;;;;;;0.17;0.10;;;;;;;15.76;100.00;98950.37;1759470;79;21084;-50
2022/07/14 02:08:53;;;;;;;3.35;0.53;;;;;;;15.75;100.00;98943.21;1792420;78;21029;-51
2022/07/14 02:14:07;;;;;;;1.98;0.10;;;;;;;15.77;100.00;98947.16;1781187;78;21458;-52
2022/07/14 02:16:34;;;;;;;3.70;0.28;;;;;;;15.77;100.00;98948.52;1740549;79;21020;-51
2022/07/14 02:19:00;;;;;;;0.47;0.10;;;;;;;15.74;100.00;98957.77;1781129;78;21033;-50
2022/07/14 02:21:27;;;;;;;1.92;0.15;;;;;;;15.70;100.00;98961.73;1780337;78;21452;-52
2022/07/14 02:23:55;;;;;;;1.92;0.10;;;;;;;15.69;100.00;98963.20;1783871;78;21246;-51
2022/07/14 02:26:23;;;;;;;0.10;0.03;;;;;;;15.67;100.00;98952.97;1783146;78;22107;-51
2022/07/14 02:28:49;;;;;;;0.42;0.10;;;;;;;15.65;100.00;98961.75;1760001;79;21104;-52
2022/07/14 02:31:16;;;;;;;2.02;0.10;;;;;;;15.62;100.00;98964.20;1787466;78;21001;-51
2022/07/14 02:33:43;;;;;;;0.25;0.10;;;;;;;15.63;100.00;98975.92;1785155;78;21087;-52
2022/07/14 02:36:09;;;;;;;1.35;0.10;;;;;;;15.61;100.00;98981.47;1791447;78;22194;-53
2022/07/14 02:38:36;;;;;;;5.03;0.10;;;;;;;15.60;100.00;98984.30;1756558;79;21030;-52
2022/07/14 02:41:04;;;;;;;0.10;0.10;;;;;;;15.59;100.00;98990.22;1757117;79;21076;-52
2022/07/14 02:43:32;;;;;;;4.83;0.10;;;;;;;15.58;100.00;98997.11;1749717;78;21579;-51
2022/07/14 02:45:59;;;;;;;0.10;0.10;;;;;;;15.56;100.00;98999.11;1785581;78;21044;-52
2022/07/14 02:48:26;;;;;;;0.75;0.10;;;;;;;15.52;100.00;99001.16;1759399;79;21400;-50
2022/07/14 02:51:01;;;;;;;5.33;1.07;;;;;;;15.50;100.00;98989.08;1786892;78;21601;-51
2022/07/14 02:53:29;;;;;;;3.30;0.10;;;;;;;15.49;100.00;99006.33;1801428;77;20925;-51
2022/07/14 02:55:55;;;;;;;0.90;0.10;;;;;;;15.49;100.00;99014.47;1778363;78;21112;-51
2022/07/14 02:58:23;;;;;;;2.87;0.10;;;;;;;15.49;100.00;99010.40;1747792;78;21532;-52
2022/07/14 03:00:51;;;;;;;1.80;0.10;;;;;;;15.50;100.00;99012.63;1781228;79;21271;-51
2022/07/14 03:03:18;;;;;;;0.50;0.10;;;;;;;15.52;100.00;99016.08;1780458;78;21463;-52
2022/07/14 03:05:44;;;;;;;3.20;0.10;;;;;;;15.51;100.00;99027.91;1775049;80;21520;-52
2022/07/14 03:08:12;;;;;;;0.20;0.10;;;;;;;15.51;100.00;99023.84;1778024;78;21048;-50
2022/07/14 03:10:40;;;;;;;1.05;0.10;;;;;;;15.52;100.00;99024.22;1775389;78;21629;-51
2022/07/14 03:13:07;;;;;;;0.80;0.20;;;;;;;15.52;100.00;99017.44;1780901;79;21084;-51
2022/07/14 03:15:33;;;;;;;0.60;0.20;;;;;;;15.52;100.00;99016.95;1781921;79;21045;-51
2022/07/14 03:18:01;;;;;;;0.20;0.20;;;;;;;15.51;100.00;99013.00;1805526;78;21512;-52
2022/07/14 03:20:28;;;;;;;2.10;0.30;;;;;;;15.52;100.00;99028.28;1780329;78;21101;-50
2022/07/14 03:22:55;;;;;;;1.60;0.30;;;;;;;15.55;100.00;99034.00;1745406;79;20930;-51
2022/07/14 03:25:23;;;;;;;0.33;0.20;;;;;;;15.53;100.00;99024.59;1776705;79;21090;-51
2022/07/14 03:27:50;;;;;;;0.40;0.20;;;;;;;15.52;100.00;99031.86;1775468;78;20934;-51
2022/07/14 03:30:18;;;;;;;1.70;0.20;;;;;;;15.50;100.00;99034.31;1808980;78;20887;-51
2022/07/14 03:32:45;;;;;;;1.47;0.20;;;;;;;15.49;100.00;99043.44;1809589;77;21408;-51
2022/07/14 03:35:11;;;;;;;2.27;0.20;;;;;;;15.49;100.00;99042.08;1806441;78;21010;-50
2022/07/14 03:37:39;;;;;;;0.30;0.10;;;;;;;15.49;100.00;99044.80;1809860;77;21092;-51
2022/07/14 03:40:08;;;;;;;0.25;0.10;;;;;;;15.49;100.00;99049.73;1808084;78;21550;-51
2022/07/14 03:42:36;;;;;;;1.75;0.20;;;;;;;15.51;100.00;99049.61;1753840;79;20937;-51
2022/07/14 03:45:02;;;;;;;0.37;0.20;;;;;;;15.51;100.00;99049.61;1780795;78;20984;-50
2022/07/14 03:47:29;;;;;;;0.93;0.20;;;;;;;15.50;100.00;99056.02;1776170;77;20964;-50
2022/07/14 03:52:28;;;;;;;0.37;0.28;;;;;;;15.50;100.00;99058.73;1797762;78;28095;-52
2022/07/14 03:54:54;;;;;;;1.82;0.20;;;;;;;15.48;100.00;99058.02;1769067;79;21070;-51
2022/07/14 03:57:23;;;;;;;1.02;0.20;;;;;;;15.50;100.00;99062.80;1759959;79;21606;-51
2022/07/14 03:59:49;;;;;;;0.25;0.20;;;;;;;15.49;100.00;99055.64;1755281;80;20950;-51
2022/07/14 04:02:16;;;;;;;0.53;0.17;;;;;;;15.47;100.00;99055.79;1753890;80;21464;-52
2022/07/14 04:04:43;;;;;;;3.62;0.20;;;;;;;15.46;100.00;99067.62;1755776;80;21192;-51
2022/07/14 04:07:10;;;;;;;0.42;0.17;;;;;;;15.46;100.00;99065.40;1751577;80;21065;-51
2022/07/14 04:09:38;;;;;;;1.52;0.20;;;;;;;15.48;100.00;99058.02;1754546;80;21499;-52
2022/07/14 04:12:07;;;;;;;0.20;0.20;;;;;;;15.52;100.00;99068.97;1751528;80;21012;-51
2022/07/14 04:14:33;;;;;;;0.90;0.20;;;;;;;15.59;100.00;99068.02;1759463;80;21002;-52
2022/07/14 04:17:00;;;;;;;0.85;0.20;;;;;;;15.64;100.00;99068.05;1724541;81;21049;-51
2022/07/14 04:19:27;;;;;;;0.25;0.20;;;;;;;15.71;100.00;99076.05;1682529;84;21164;-51
2022/07/14 04:21:54;;;;;;;1.87;0.30;;;;;;;15.75;100.00;99068.52;1698701;82;21832;-50
2022/07/14 04:24:22;;;;;;;0.30;0.20;;;;;;;15.79;100.00;99075.44;1696759;83;21124;-50
2022/07/14 04:26:49;;;;;;;0.93;0.20;;;;;;;15.82;100.00;99081.47;1695997;83;21058;-51
2022/07/14 04:29:15;;;;;;;2.35;0.30;;;;;;;15.85;100.00;99082.59;1689568;81;21077;-51
2022/07/14 04:31:43;;;;;;;1.52;0.40;;;;;;;15.87;100.00;99081.98;1692741;83;21081;-51
2022/07/14 04:34:11;;;;;;;1.42;0.40;;;;;;;15.89;100.00;99081.38;1715117;81;21695;-51
2022/07/14 04:36:38;;;;;;;0.82;0.25;;;;;;;15.93;100.00;99081.10;1689819;83;21072;-51
2022/07/14 04:39:07;;;;;;;2.00;0.20;;;;;;;15.95;100.00;99094.93;1696350;83;21001;-50
2022/07/14 04:41:40;;;;;;;0.20;0.10;;;;;;;15.96;100.00;99095.30;1695511;83;21061;-51
2022/07/14 04:44:04;;;;;;;0.57;0.23;;;;;;;15.96;100.00;99094.44;1666611;83;21187;-52
2022/07/14 04:46:31;;;;;;;0.85;0.30;;;;;;;15.97;100.00;99091.61;1724265;81;21159;-52
2022/07/14 04:52:04;;;;;;;0.47;0.20;;;;;;;16.06;100.00;99094.94;1678359;83;21062;-51
2022/07/14 04:54:36;;;;;;;0.75;0.20;;;;;;;16.12;100.00;99096.28;1664870;83;21112;-51
2022/07/14 04:57:20;;;;;;;0.62;0.20;;;;;;;16.17;100.00;99097.62;1668166;83;21519;-51
2022/07/14 04:59:48;;;;;;;1.27;0.10;;;;;;;16.23;100.00;99103.93;1663358;83;21223;-50
2022/07/14 05:02:14;;;;;;;3.22;0.25;;;;;;;16.32;100.00;99105.52;1697287;82;21081;-51
2022/07/14 05:05:44;;;;;;;2.55;0.20;;;;;;;-144.06;100.00;116433.64;1538512;82;975501;-50
2022/07/14 05:08:11;;;;;;;0.20;0.13;;;;;;;16.42;100.00;99116.84;1576410;83;977087;-51
2022/07/14 05:11:22;;;;;;;0.10;0.10;;;;;;;16.64;100.00;99115.48;1538390;82;975173;-50
2022/07/14 05:14:45;;;;;;;1.30;0.20;;;;;;;16.64;100.00;99115.48;1442038;84;975434;-49
2022/07/14 05:17:12;;;;;;;1.13;0.10;;;;;;;16.64;100.00;99115.48;1499992;83;984428;-51
2022/07/14 05:19:55;;;;;;;0.30;0.10;;;;;;;16.89;100.00;99115.66;1467355;82;985140;-49
2022/07/14 05:23:36;;;;;;;0.33;0.20;;;;;;;16.89;100.00;99115.66;1501357;82;984515;-49
2022/07/14 05:26:46;;;;;;;0.27;0.13;;;;;;;16.89;100.00;99115.66;1530268;82;975416;-52
2022/07/14 05:32:22;;;;;;;1.05;0.15;;;;;;;16.89;100.00;99115.66;1501015;82;984466;-53
2022/07/14 05:37:41;;;;;;;1.02;0.20;;;;;;;16.89;100.00;99115.66;1519086;82;975543;-50
2022/07/14 05:48:30;;;;;;;;;;;;;;;16.89;100.00;99115.66;1508323;82;975563;-49
2022/07/14 06:02:24;;;;;;;0.10;0.10;;;;;;;16.89;100.00;99115.66;1502351;82;975305;-50
2022/07/14 06:19:37;;;;;;;0.17;0.10;;;;;;;16.89;100.00;99115.66;1574868;80;984716;-51
2022/07/14 06:30:06;;;;;;;0.10;0.10;;;;;;;16.89;100.00;99115.66;1510363;80;984835;-53
2022/07/14 06:32:33;;;;;;;0.47;0.10;;;;;;;16.89;100.00;99115.66;1745549;80;463623;-53
2022/07/14 06:35:00;;;;;;;1.15;0.10;;;;;;;18.52;100.00;99129.94;1718230;80;20930;-52
2022/07/14 06:37:26;;;;;;;0.20;0.10;;;;;;;18.54;100.00;99131.50;1751897;80;21107;-51
2022/07/14 06:40:49;;;;;;;0.40;0.10;;;;;;;18.58;100.00;99133.99;1732138;80;892499;-52
2022/07/14 06:43:16;;;;;;;0.80;0.10;;;;;;;18.58;100.00;99133.99;1708671;80;974878;-52
2022/07/14 06:45:46;;;;;;;1.10;0.20;;;;;;;18.74;100.00;99138.41;1704291;82;21089;-51
2022/07/14 06:48:13;;;;;;;1.00;0.35;;;;;;;18.77;100.00;99139.50;1752799;80;21446;-52
2022/07/14 06:50:40;;;;;;;0.25;0.10;;;;;;;18.82;100.00;99133.97;1750485;80;21033;-52
2022/07/14 06:53:41;;;;;;;0.30;0.10;;;;;;;18.86;100.00;99131.84;1695127;82;892693;-52
2022/07/14 06:56:08;;;;;;;0.40;0.10;;;;;;;18.86;100.00;99131.84;1597758;80;975493;-52
2022/07/14 06:59:14;;;;;;;0.10;0.10;;;;;;;19.01;100.00;99130.91;1540375;80;984638;-53
2022/07/14 07:03:57;;;;;;;0.55;0.10;;;;;;;19.01;100.00;99130.91;1466634;82;985138;-52
2022/07/14 07:09:12;;;;;;;1.10;0.40;;;;;;;19.15;100.00;99141.39;1734290;80;21062;-52
2022/07/14 07:11:57;;;;;;;0.13;0.10;;;;;;;19.20;100.00;99150.89;1741451;80;21113;-52
2022/07/14 07:14:23;;;;;;;1.20;0.10;;;;;;;19.27;100.00;99151.17;1711416;80;892844;-53
2022/07/14 07:16:52;;;;;;;0.60;0.10;;;;;;;19.38;100.00;99148.81;1502328;82;975449;-53
2022/07/14 07:19:18;;;;;;;0.70;0.10;;;;;;;19.38;100.00;99148.81;1505904;80;975025;-52
2022/07/14 07:22:14;;;;;;;0.40;0.10;;;;;;;19.70;100.00;99147.16;1543971;80;985003;-52
2022/07/14 07:25:06;;;;;;;1.75;0.20;;;;;;;19.70;100.00;99147.16;1531400;80;984860;-53
2022/07/14 07:28:07;;;;;;;0.95;0.23;;;;;;;19.70;100.00;99147.16;1503834;80;985046;-52
2022/07/14 07:30:36;;;;;;;0.42;0.20;;;;;;;19.70;100.00;99147.16;1541944;80;975631;-53
2022/07/14 07:33:52;;;;;;;0.30;0.20;;;;;;;19.70;100.00;99147.16;1570694;80;985299;-51
2022/07/14 07:39:15;;;;;;;0.45;0.10;;;;;;;19.70;100.00;99147.16;1551687;81;975244;-51
2022/07/14 07:42:22;;;;;;;1.70;0.10;;;;;;;19.70;100.00;99147.16;1488010;82;985117;-52
2022/07/14 07:45:00;;;;;;;4.17;0.10;;;;;;;19.70;100.00;99147.16;1534426;80;975477;-49
2022/07/14 07:47:51;;;;;;;0.15;0.10;;;;;;;19.70;100.00;99147.16;1563136;80;984913;-52
2022/07/14 07:52:12;;;;;;;0.35;0.17;;;;;;;19.70;100.00;99147.16;1497130;80;985140;-51
2022/07/14 07:55:53;;;;;;;0.20;0.10;;;;;;;19.70;100.00;99147.16;1496623;80;984797;-50
2022/07/14 07:59:27;;;;;;;1.55;0.30;;;;;;;19.70;100.00;99147.16;1468975;82;985156;-52
2022/07/14 08:01:54;;;;;;;0.20;0.10;;;;;;;19.70;100.00;99147.16;1565364;84;975136;-52
2022/07/14 08:04:22;;;;;;;0.97;0.20;;;;;;;20.69;100.00;99156.11;1744262;80;20994;-52
2022/07/14 08:06:48;;;;;;;0.23;0.20;;;;;;;20.66;100.00;99155.06;1713085;80;892333;-52
2022/07/14 08:09:14;;;;;;;0.20;0.20;;;;;;;20.64;100.00;99163.92;1738309;80;21498;-51
2022/07/14 08:11:41;;;;;;;0.30;0.10;;;;;;;20.62;100.00;99165.44;1739446;80;21477;-52
2022/07/14 08:14:47;;;;;;;0.90;0.20;;;;;;;20.64;100.00;99167.52;1703244;82;21342;-52
2022/07/14 08:16:37;;;;;;;0.90;0.10;;;;;;;20.69;100.00;99162.95;1704013;82;21569;-51
2022/07/14 08:19:04;;;;;;;0.28;0.10;;;;;;;20.72;100.00;99153.08;1685982;83;21086;-51
2022/07/14 08:21:30;;;;;;;1.57;0.20;;;;;;;20.76;100.00;99158.08;1612188;80;975387;-52
2022/07/14 08:23:57;;;;;;;3.40;0.30;;;;;;;20.91;100.00;99156.21;1745234;80;21444;-52
2022/07/14 08:26:23;;;;;;;0.68;0.10;;;;;;;20.89;100.00;99165.08;1742165;80;21646;-52
2022/07/14 08:28:49;;;;;;;1.05;0.20;;;;;;;20.93;100.00;99165.10;1734046;80;21078;-52
2022/07/14 08:31:16;;;;;;;0.45;0.20;;;;;;;20.96;100.00;99162.94;1743792;80;21050;-51
2022/07/14 08:34:22;;;;;;;0.10;0.10;;;;;;;21.00;100.00;99160.26;1595773;80;985027;-52
2022/07/14 08:36:49;;;;;;;0.55;0.10;;;;;;;21.00;100.00;99160.26;1743742;80;21081;-53
2022/07/14 08:39:16;;;;;;;3.10;0.20;;;;;;;21.05;100.00;99160.64;1725671;80;902432;-52
2022/07/14 08:42:33;;;;;;;0.20;0.10;;;;;;;21.07;100.00;99163.23;1567357;82;985056;-51
2022/07/14 08:45:25;;;;;;;0.82;0.20;;;;;;;21.07;100.00;99163.23;1528132;80;975446;-51
2022/07/14 09:20:28;;;;;;;3.15;0.20;;;;;;;21.07;100.00;99163.23;1500016;80;975348;-54
2022/07/14 09:24:08;;;;;;;2.10;0.20;;;;;;;21.07;100.00;99163.23;1691466;80;984454;-52
2022/07/14 09:28:27;;;;;;;1.77;0.30;;;;;;;21.07;100.00;99163.23;1502212;80;975472;-52
2022/07/14 09:30:53;;;;;;;3.03;0.30;;;;;;;21.07;100.00;99163.23;1474849;82;977863;-54
2022/07/14 09:34:29;;;;;;;1.77;0.30;;;;;;;21.63;100.00;99183.98;1611495;80;984530;-53
2022/07/14 09:37:53;;;;;;;0.30;0.30;;;;;;;21.63;100.00;99183.98;1446181;82;985534;-52
2022/07/14 09:41:38;;;;;;;0.90;0.20;;;;;;;21.63;100.00;99183.98;1511185;80;984900;-53
2022/07/14 09:44:20;;;;;;;2.02;0.30;;;;;;;21.63;100.00;99183.98;1509053;81;975497;-51
2022/07/14 09:49:27;;;;;;;0.65;0.30;;;;;;;21.63;100.00;99183.98;1538384;80;984887;-52
2022/07/14 09:57:46;;;;;;;0.53;0.30;;;;;;;21.63;100.00;99183.98;1505587;80;975643;-52
2022/07/14 10:01:07;;;;;;;0.53;0.33;;;;;;;21.63;100.00;99183.98;1502804;80;975460;-53
2022/07/14 10:05:01;;;;;;;0.50;0.32;;;;;;;21.63;100.00;99183.98;1500435;80;985116;-51
2022/07/14 10:08:03;;;;;;;0.36;0.30;;;;;;;21.63;100.00;99183.98;1505980;80;984823;-55
2022/07/14 10:12:36;;;;;;;1.28;0.30;;;;;;;21.63;100.00;99183.98;1496344;80;985005;-52
2022/07/14 10:15:27;;;;;;;0.52;0.40;;;;;;;21.63;100.00;99183.98;1468252;82;984930;-53
2022/07/14 10:18:06;;;;;;;0.42;0.22;;;;;;;21.63;100.00;99183.98;1498634;80;984703;-52
2022/07/14 10:20:39;;;;;;;1.44;0.40;;;;;;;21.63;100.00;99183.98;1498820;80;985185;-52
2022/07/14 10:25:07;;;;;;;0.67;0.30;;;;;;;21.63;100.00;99183.98;1524520;80;975079;-52
2022/07/14 10:27:37;;;;;;;0.95;0.40;;;;;;;21.63;100.00;99183.98;1471572;82;975562;-52
2022/07/14 10:31:49;;;;;;;0.33;0.30;;;;;;;22.68;100.00;99188.86;1508580;81;985039;-54
2022/07/14 10:35:08;;;;;;;2.10;0.30;;;;;;;22.68;100.00;99188.86;1504170;80;985162;-52
2022/07/14 10:40:51;;;;;;;0.50;0.28;;;;;;;22.68;100.00;99188.86;1512966;80;985175;-51
2022/07/14 10:45:52;;;;;;;0.30;0.30;;;;;;;;;;1616158;75;985010;-52
2022/07/14 10:48:31;;;;;;;0.30;0.30;;;;;;;;;;1611545;75;984608;-52
2022/07/14 10:51:16;;;;;;;0.40;0.30;;;;;;;;;;1614844;75;985165;-50
2022/07/14 10:54:01;;;;;;;0.30;0.30;;;;;;;;;;1614482;75;984543;-53
2022/07/14 10:56:27;;;;;;;3.74;0.40;;;;;;;;;;1612228;75;984846;-53
2022/07/14 10:59:13;;;;;;;0.84;0.30;;;;;;;;;;1595753;75;984949;-53
2022/07/14 11:01:41;;;;;;;0.20;0.20;;;;;;;;;;1596258;75;985006;-53
2022/07/14 11:04:07;;;;;;;0.22;0.20;;;;;;;;;;1602613;75;985032;-53
2022/07/14 11:06:33;;;;;;;4.30;0.40;;;;;;;;;;1599144;75;984997;-53
2022/07/14 11:09:22;;;;;;;1.76;0.30;;;;;;;;;;1596185;75;984799;-53
2022/07/14 11:12:09;;;;;;;0.48;0.20;;;;;;;;;;1593912;75;984872;-53
2022/07/14 11:14:40;;;;;;;1.34;0.20;;;;;;;;;;1599122;75;984397;-52
2022/07/14 11:17:07;;;;;;;0.40;0.26;;;;;;;;;;1598563;75;985020;-54
2022/07/14 11:19:37;;;;;;;1.12;0.20;;;;;;;;;;1598394;75;984622;-54
2022/07/14 11:22:11;;;;;;;1.72;0.20;;;;;;;;;;1598756;75;984881;-55
2022/07/14 11:24:45;;;;;;;1.30;0.26;;;;;;;;;;1595513;75;984962;-54
2022/07/14 11:27:22;;;;;;;1.38;0.30;;;;;;;;;;1592971;75;984893;-53
2022/07/14 11:29:48;;;;;;;0.40;0.22;;;;;;;;;;1563897;77;984837;-54
2022/07/14 11:32:33;;;;;;;0.42;0.20;;;;;;;;;;1593955;75;984667;-53
2022/07/14 11:37:53;;;;;;;0.28;0.20;;;;;;;;;;1559666;77;984886;-53
2022/07/14 11:40:38;;;;;;;0.38;0.30;;;;;;;;;;1546291;76;984755;-55
2022/07/14 11:43:09;;;;;;;0.98;0.25;;;;;;;;;;1605915;75;984980;-54
2022/07/14 11:45:55;;;;;;;0.20;0.20;;;;;;;;;;1580116;75;975507;-52
2022/07/14 11:48:40;;;;;;;0.30;0.20;;;;;;;;;;1598945;75;975286;-53
2022/07/14 11:51:15;;;;;;;0.23;0.23;;;;;;;;;;1594225;75;975380;-54
2022/07/14 11:53:41;;;;;;;0.30;0.30;;;;;;;;;;1566272;76;975537;-53
2022/07/14 11:56:07;;;;;;;0.30;0.30;;;;;;;;;;1598231;75;975230;-53
2022/07/14 11:58:35;;;;;;;2.55;0.30;;;;;;;;;;1602012;75;975342;-54
2022/07/14 12:01:01;;;;;;;2.35;0.20;;;;;;;;;;1599360;75;975736;-55
2022/07/14 12:03:27;;;;;;;1.05;0.30;;;;;;;;;;1533432;78;975347;-55
2022/07/14 12:05:54;;;;;;;0.33;0.30;;;;;;;;;;1551681;77;975482;-53
2022/07/14 12:08:22;;;;;;;0.30;0.30;;;;;;;;;;1529068;79;975353;-53
2022/07/14 12:10:49;;;;;;;0.53;0.30;;;;;;;;;;1543971;78;975651;-52
2022/07/14 12:13:16;;;;;;;1.50;0.30;;;;;;;;;;1542321;78;975517;-54
2022/07/14 12:15:44;;;;;;;2.05;0.28;;;;;;;;;;1592695;78;984936;-53
2022/07/14 12:18:11;;;;;;;0.42;0.20;;;;;;;;;;1546607;78;984860;-54
2022/07/14 12:20:41;;;;;;;0.62;0.30;;;;;;;;;;1557473;77;984279;-55
2022/07/14 12:23:07;;;;;;;0.90;0.30;;;;;;;;;;1520445;78;984742;-54
2022/07/14 12:25:34;;;;;;;0.30;0.20;;;;;;;;;;1531507;78;984808;-54
2022/07/14 12:28:02;;;;;;;0.50;0.30;;;;;;;;;;1542416;78;984899;-54
2022/07/14 12:30:47;;;;;;;0.40;0.30;;;;;;;;;;1542779;78;984627;-53
2022/07/14 12:33:14;;;;;;;3.98;0.20;;;;;;;;;;1536614;78;984980;-54
2022/07/14 12:35:41;;;;;;;2.94;0.30;;;;;;;;;;1541473;78;984731;-52
2022/07/14 12:38:08;;;;;;;1.62;0.20;;;;;;;;;;1558091;77;984684;-53
2022/07/14 12:40:35;;;;;;;1.60;0.20;;;;;;;;;;1554955;77;984744;-54
2022/07/14 12:43:03;;;;;;;0.50;0.20;;;;;;;;;;1557396;77;984456;-54
2022/07/14 12:45:30;;;;;;;0.33;0.30;;;;;;;;;;1526483;79;984898;-54
2022/07/14 12:48:00;;;;;;;0.62;0.30;;;;;;;;;;1556216;78;984891;-53
2022/07/14 12:50:25;;;;;;;1.85;0.30;;;;;;;;;;1571007;78;975260;-53
2022/07/14 12:52:53;;;;;;;0.30;0.30;;;;;;;;;;1555630;77;975282;-52
2022/07/14 12:55:36;;;;;;;2.25;0.30;;;;;;;;;;1537999;78;975473;-53
2022/07/14 12:58:03;;;;;;;0.28;0.28;;;;;;;;;;1525327;78;977631;-53
2022/07/14 13:00:30;;;;;;;1.05;0.40;;;;;;;;;;1578190;77;985087;-53
2022/07/14 13:03:15;;;;;;;0.92;0.30;;;;;;;;;;1592220;77;984497;-53
2022/07/14 13:05:46;;;;;;;0.50;0.30;;;;;;;;;;1531175;78;985039;-54
2022/07/14 13:08:29;;;;;;;0.20;0.20;;;;;;;;;;1541804;79;984890;-53
2022/07/14 13:10:56;;;;;;;0.20;0.20;;;;;;;;;;1546301;79;984979;-53
2022/07/14 13:13:30;;;;;;;0.40;0.20;;;;;;;;;;1536415;79;984976;-53
2022/07/14 13:16:15;;;;;;;0.94;0.20;;;;;;;;;;1543249;79;984840;-54
2022/07/14 13:19:01;;;;;;;0.32;0.30;;;;;;;;;;1542790;79;984981;-54
2022/07/14 13:21:46;;;;;;;0.53;0.30;;;;;;;;;;1545037;79;984954;-54
2022/07/14 13:24:13;;;;;;;0.40;0.20;;;;;;;;;;1558981;79;984562;-53
2022/07/14 13:26:39;;;;;;;0.50;0.20;;;;;;;;;;1551250;79;975239;-54
2022/07/14 13:29:05;;;;;;;2.47;0.20;;;;;;;;;;1585711;79;975075;-53
2022/07/14 13:31:32;;;;;;;0.50;0.30;;;;;;;;;;1579269;77;984582;-53
2022/07/14 13:34:01;;;;;;;1.87;0.23;;;;;;;;;;1563596;77;984929;-55
2022/07/14 13:36:28;;;;;;;3.12;0.25;;;;;;;;;;1563425;77;984934;-54
2022/07/14 13:38:54;;;;;;;2.47;0.20;;;;;;;;;;1543673;78;984618;-54
2022/07/14 13:41:20;;;;;;;0.25;0.25;;;;;;;;;;1542532;78;984776;-54
2022/07/14 13:43:49;;;;;;;1.80;0.30;;;;;;;;;;1597868;78;984896;-54
2022/07/14 13:46:16;;;;;;;0.62;0.23;;;;;;;;;;1623668;78;975261;-54
2022/07/14 13:48:43;;;;;;;0.50;0.20;;;;;;;;;;1609657;78;975069;-54
2022/07/14 13:53:54;;;;;;;0.20;0.20;;;;;;;;;;1536788;78;976946;-54
2022/07/14 13:56:21;;;;;;;0.37;0.20;;;;;;;;;;1545868;78;977966;-55
2022/07/14 13:58:47;;;;;;;0.47;0.30;;;;;;;;;;1565353;77;977846;-54
2022/07/14 14:01:13;;;;;;;0.30;0.30;;;;;;;;;;1544777;78;977418;-55
2022/07/14 14:03:40;;;;;;;0.23;0.23;;;;;;;;;;1540674;78;977666;-54
2022/07/14 14:06:06;;;;;;;0.25;0.23;;;;;;;;;;1567069;77;977857;-54
2022/07/14 14:08:34;;;;;;;0.30;0.20;;;;;;;;;;1566448;77;977401;-54
2022/07/14 14:11:00;;;;;;;1.27;0.20;;;;;;;;;;1628525;77;984611;-54
2022/07/14 14:13:28;;;;;;;0.25;0.20;;;;;;;;;;1580944;77;984964;-54
2022/07/14 14:15:56;;;;;;;0.33;0.30;;;;;;;;;;1560950;77;984868;-53
2022/07/14 14:18:23;;;;;;;0.40;0.20;;;;;;;;;;1621642;77;984478;-54
2022/07/14 14:20:49;;;;;;;2.44;0.20;;;;;;;;;;1562178;77;984826;-55
2022/07/14 14:23:15;;;;;;;0.20;0.20;;;;;;;;;;1533362;78;984607;-55
2022/07/14 14:25:42;;;;;;;1.57;0.30;;;;;;;;;;1549462;79;985153;-54
2022/07/14 14:28:09;;;;;;;0.30;0.20;;;;;;;;;;1546900;79;984900;-54
2022/07/14 14:30:35;;;;;;;0.60;0.30;;;;;;;;;;1646400;79;984630;-53
2022/07/14 14:33:01;;;;;;;0.30;0.30;;;;;;;;;;1549529;79;984708;-54
2022/07/14 14:35:28;;;;;;;0.40;0.20;;;;;;;;;;1540929;79;984898;-56
2022/07/14 14:37:53;;;;;;;0.72;0.23;;;;;;;;;;1542995;79;985015;-56
2022/07/14 14:40:19;;;;;;;0.30;0.30;;;;;;;;;;1640787;79;984886;-53
2022/07/14 14:42:46;;;;;;;1.90;0.30;;;;;;;;;;1542848;79;985120;-55
2022/07/14 14:45:12;;;;;;;0.27;0.20;;;;;;;;;;1544377;79;984945;-55
2022/07/14 14:47:38;;;;;;;0.40;0.30;;;;;;;;;;1544180;79;984786;-56
2022/07/14 14:50:05;;;;;;;0.74;0.20;;;;;;;;;;1538454;79;985005;-56
2022/07/14 14:52:31;;;;;;;1.00;0.20;;;;;;;;;;1542055;79;985053;-55